createdAt,value
2017-03-09T00:00:45.213Z,95.7
2017-03-09T00:01:47.501Z,95.7
2017-03-09T00:02:49.961Z,95.7
2017-03-09T00:03:52.926Z,95.7
2017-03-09T00:04:55.215Z,95.7
2017-03-09T00:05:57.699Z,95.7
2017-03-09T00:07:00.498Z,95.7
2017-03-09T00:08:02.951Z,95.7
2017-03-09T00:09:05.407Z,95.7
2017-03-09T00:10:08.384Z,95.8
2017-03-09T00:11:10.733Z,95.8
2017-03-09T00:12:13.528Z,95.8
2017-03-09T00:13:15.992Z,95.8
2017-03-09T00:15:21.201Z,95.8
2017-03-09T00:16:23.676Z,95.8
2017-03-09T00:17:26.122Z,95.8
2017-03-09T00:18:28.912Z,95.8
2017-03-09T00:19:31.380Z,95.8
2017-03-09T00:20:33.836Z,95.8
2017-03-09T00:21:36.793Z,95.8
2017-03-09T00:22:39.251Z,95.8
2017-03-09T00:23:41.715Z,95.8
2017-03-09T00:24:44.167Z,95.8
2017-03-09T00:25:47.139Z,95.8
2017-03-09T00:26:49.591Z,95.8
2017-03-09T00:28:54.654Z,95.8
2017-03-09T00:29:57.106Z,95.8
2017-03-09T00:31:00.597Z,95.8
2017-03-09T00:32:02.587Z,95.8
2017-03-09T00:33:05.053Z,95.8
2017-03-09T00:34:07.510Z,95.8
2017-03-09T00:35:10.483Z,95.8
2017-03-09T00:36:12.946Z,95.8
2017-03-09T00:37:15.424Z,95.8
2017-03-09T00:38:17.880Z,95.8
2017-03-09T00:39:20.835Z,95.8
2017-03-09T00:40:23.299Z,95.8
2017-03-09T00:41:25.597Z,95.8
2017-03-09T00:42:28.557Z,95.8
2017-03-09T00:43:31.021Z,95.8
2017-03-09T00:44:33.478Z,95.8
2017-03-09T00:45:35.943Z,95.8
2017-03-09T00:46:39.429Z,95.8
2017-03-09T00:47:41.396Z,95.8
2017-03-09T00:48:44.259Z,95.8
2017-03-09T00:49:46.209Z,95.8
2017-03-09T00:50:49.176Z,95.9
2017-03-09T00:51:51.636Z,95.9
2017-03-09T00:52:54.098Z,95.9
2017-03-09T00:53:57.252Z,95.9
2017-03-09T00:54:59.764Z,95.9
2017-03-09T00:56:01.716Z,95.9
2017-03-09T00:57:04.672Z,95.8
2017-03-09T00:58:07.169Z,95.8
2017-03-09T00:59:09.632Z,95.9
2017-03-09T01:00:12.446Z,95.8
2017-03-09T01:01:14.940Z,95.9
2017-03-09T01:02:17.391Z,95.9
2017-03-09T01:03:20.191Z,95.9
2017-03-09T01:04:22.487Z,95.9
2017-03-09T01:05:24.954Z,95.9
2017-03-09T01:06:27.922Z,95.9
2017-03-09T01:07:30.383Z,95.9
2017-03-09T01:08:32.854Z,95.9
2017-03-09T01:09:35.301Z,95.9
2017-03-09T01:10:38.258Z,95.9
2017-03-09T01:11:41.238Z,95.9
2017-03-09T01:12:43.195Z,95.9
2017-03-09T01:13:45.682Z,95.9
2017-03-09T01:14:48.161Z,95.9
2017-03-09T01:15:51.118Z,95.9
2017-03-09T01:16:53.568Z,95.9
2017-03-09T01:17:56.023Z,95.9
2017-03-09T01:18:58.488Z,95.9
2017-03-09T01:20:01.443Z,95.9
2017-03-09T01:21:03.908Z,95.9
2017-03-09T01:22:06.200Z,95.9
2017-03-09T01:23:09.169Z,95.9
2017-03-09T01:24:11.625Z,95.9
2017-03-09T01:25:14.099Z,95.9
2017-03-09T01:26:16.584Z,95.9
2017-03-09T01:27:19.543Z,95.9
2017-03-09T01:29:24.401Z,95.9
2017-03-09T01:30:27.373Z,95.9
2017-03-09T01:31:29.830Z,95.9
2017-03-09T01:32:32.286Z,95.9
2017-03-09T01:33:34.745Z,95.9
2017-03-09T01:34:37.728Z,95.9
2017-03-09T01:36:42.601Z,95.9
2017-03-09T01:37:45.093Z,95.9
2017-03-09T01:38:48.062Z,95.9
2017-03-09T01:39:50.520Z,95.9
2017-03-09T01:40:52.974Z,95.9
2017-03-09T01:41:55.444Z,95.9
2017-03-09T01:42:58.407Z,95.9
2017-03-09T01:44:00.857Z,95.9
2017-03-09T01:45:03.151Z,95.9
2017-03-09T01:46:05.765Z,95.9
2017-03-09T01:47:08.739Z,95.9
2017-03-09T01:48:11.198Z,95.9
2017-03-09T01:49:13.659Z,95.9
2017-03-09T01:50:16.112Z,95.9
2017-03-09T01:51:18.899Z,95.9
2017-03-09T01:52:21.364Z,95.9
2017-03-09T01:53:23.819Z,95.9
2017-03-09T01:54:26.836Z,95.9
2017-03-09T01:55:29.286Z,95.9
2017-03-09T01:56:31.742Z,95.9
2017-03-09T01:57:34.752Z,95.9
2017-03-09T01:58:37.050Z,95.9
2017-03-09T01:59:39.500Z,95.9
2017-03-09T02:00:41.955Z,95.9
2017-03-09T02:01:45.437Z,95.9
2017-03-09T02:02:47.406Z,95.9
2017-03-09T02:03:49.870Z,95.9
2017-03-09T02:04:52.329Z,95.9
2017-03-09T02:05:54.785Z,95.9
2017-03-09T02:06:57.750Z,95.9
2017-03-09T02:08:00.232Z,95.9
2017-03-09T02:09:03.232Z,95.9
2017-03-09T02:10:05.207Z,95.9
2017-03-09T02:11:08.165Z,95.9
2017-03-09T02:12:10.634Z,95.9
2017-03-09T02:13:13.085Z,95.9
2017-03-09T02:14:15.561Z,95.9
2017-03-09T02:15:18.517Z,95.9
2017-03-09T02:16:20.998Z,95.9
2017-03-09T02:17:23.460Z,95.9
2017-03-09T02:18:25.933Z,95.9
2017-03-09T02:19:28.399Z,95.9
2017-03-09T02:20:31.226Z,95.9
2017-03-09T02:21:33.685Z,95.9
2017-03-09T02:22:36.140Z,95.9
2017-03-09T02:23:39.094Z,95.9
2017-03-09T02:24:41.285Z,95.9
2017-03-09T02:25:44.091Z,95.9
2017-03-09T02:26:46.543Z,95.9
2017-03-09T02:27:50.037Z,95.9
2017-03-09T02:28:52.019Z,95.9
2017-03-09T02:29:54.469Z,95.9
2017-03-09T02:30:56.959Z,95.9
2017-03-09T02:31:59.459Z,95.9
2017-03-09T02:33:02.162Z,95.9
2017-03-09T02:34:05.143Z,95.9
2017-03-09T02:35:07.602Z,95.9
2017-03-09T02:36:10.071Z,95.9
2017-03-09T02:38:14.937Z,95.9
2017-03-09T02:39:17.894Z,95.9
2017-03-09T02:40:20.095Z,95.9
2017-03-09T02:41:23.079Z,95.9
2017-03-09T02:42:25.544Z,95.9
2017-03-09T02:43:28.005Z,95.9
2017-03-09T02:44:30.452Z,95.9
2017-03-09T02:45:33.066Z,95.9
2017-03-09T02:46:35.859Z,95.9
2017-03-09T02:47:38.317Z,95.9
2017-03-09T02:48:41.277Z,95.9
2017-03-09T02:49:43.731Z,95.9
2017-03-09T02:50:46.208Z,95.9
2017-03-09T02:51:48.584Z,95.9
2017-03-09T02:52:51.372Z,95.9
2017-03-09T02:53:53.830Z,95.9
2017-03-09T02:54:56.302Z,95.9
2017-03-09T02:55:59.256Z,95.9
2017-03-09T02:57:01.711Z,95.9
2017-03-09T02:58:04.228Z,95.9
2017-03-09T02:59:06.702Z,95.9
2017-03-09T03:00:09.659Z,95.9
2017-03-09T03:01:12.167Z,95.9
2017-03-09T03:02:14.617Z,95.9
2017-03-09T03:03:17.065Z,95.9
2017-03-09T03:04:20.044Z,95.9
2017-03-09T03:05:22.505Z,95.9
2017-03-09T03:06:24.790Z,95.9
2017-03-09T03:07:27.770Z,95.9
2017-03-09T03:08:30.221Z,95.9
2017-03-09T03:09:32.671Z,95.9
2017-03-09T03:10:35.122Z,95.9
2017-03-09T03:11:38.115Z,95.9
2017-03-09T03:12:40.599Z,95.9
2017-03-09T03:13:43.072Z,95.9
2017-03-09T03:14:46.272Z,95.9
2017-03-09T03:15:48.219Z,95.9
2017-03-09T03:16:50.668Z,95.9
2017-03-09T03:17:53.648Z,95.9
2017-03-09T03:18:55.938Z,95.9
2017-03-09T03:19:58.389Z,95.9
2017-03-09T03:21:01.351Z,95.9
2017-03-09T03:22:03.656Z,95.9
2017-03-09T03:23:06.475Z,95.9
2017-03-09T03:24:08.936Z,95.9
2017-03-09T03:25:11.389Z,95.9
2017-03-09T03:26:14.362Z,95.9
2017-03-09T03:27:16.663Z,95.9
2017-03-09T03:29:22.025Z,95.9
2017-03-09T03:30:24.473Z,95.9
2017-03-09T03:31:26.935Z,95.9
2017-03-09T03:32:29.889Z,95.9
2017-03-09T03:33:32.150Z,95.9
2017-03-09T03:34:35.105Z,95.9
2017-03-09T03:35:37.570Z,95.9
2017-03-09T03:36:40.048Z,95.9
2017-03-09T03:37:42.501Z,95.9
2017-03-09T03:38:45.468Z,95.9
2017-03-09T03:39:47.920Z,95.9
2017-03-09T03:40:50.740Z,95.9
2017-03-09T03:41:53.194Z,95.9
2017-03-09T03:42:55.655Z,95.9
2017-03-09T03:43:58.107Z,95.9
2017-03-09T03:45:00.565Z,95.9
2017-03-09T03:46:03.349Z,95.9
2017-03-09T03:47:05.804Z,95.9
2017-03-09T03:48:08.767Z,95.9
2017-03-09T03:49:11.238Z,95.9
2017-03-09T03:50:13.684Z,95.9
2017-03-09T03:51:16.142Z,95.9
2017-03-09T03:52:19.100Z,95.9
2017-03-09T03:53:21.551Z,95.9
2017-03-09T03:54:24.001Z,95.9
2017-03-09T03:55:26.467Z,95.9
2017-03-09T03:56:29.427Z,95.9
2017-03-09T03:57:32.406Z,95.9
2017-03-09T03:58:34.367Z,95.9
2017-03-09T03:59:36.834Z,95.9
2017-03-09T04:00:40.324Z,95.9
2017-03-09T04:01:42.282Z,95.9
2017-03-09T04:02:44.729Z,95.9
2017-03-09T04:03:47.196Z,95.9
2017-03-09T04:04:50.150Z,95.9
2017-03-09T04:05:52.616Z,95.9
2017-03-09T04:06:55.065Z,95.9
2017-03-09T04:07:58.169Z,95.9
2017-03-09T04:09:00.114Z,95.9
2017-03-09T04:10:03.098Z,95.9
2017-03-09T04:11:05.388Z,95.9
2017-03-09T04:12:08.347Z,95.9
2017-03-09T04:13:11.065Z,95.9
2017-03-09T04:14:13.526Z,95.9
2017-03-09T04:15:15.985Z,95.9
2017-03-09T04:16:18.435Z,95.9
2017-03-09T04:17:20.885Z,95.9
2017-03-09T04:18:23.695Z,95.9
2017-03-09T04:19:26.154Z,95.9
2017-03-09T04:20:28.633Z,95.9
2017-03-09T04:21:31.584Z,95.9
2017-03-09T04:22:34.563Z,95.9
2017-03-09T04:23:36.398Z,95.9
2017-03-09T04:24:39.389Z,95.9
2017-03-09T04:25:41.854Z,95.9
2017-03-09T04:26:44.313Z,95.9
2017-03-09T04:27:47.108Z,95.9
2017-03-09T04:28:49.580Z,95.9
2017-03-09T04:29:52.581Z,95.9
2017-03-09T04:30:54.526Z,95.9
2017-03-09T04:31:57.479Z,95.9
2017-03-09T04:32:59.949Z,95.9
2017-03-09T04:34:02.412Z,95.9
2017-03-09T04:35:05.369Z,95.9
2017-03-09T04:36:07.821Z,95.9
2017-03-09T04:38:13.203Z,95.9
2017-03-09T04:39:15.499Z,95.9
2017-03-09T04:40:17.951Z,95.9
2017-03-09T04:41:20.809Z,95.9
2017-03-09T04:42:23.264Z,95.9
2017-03-09T04:43:25.738Z,95.9
2017-03-09T04:44:28.694Z,95.9
2017-03-09T04:45:30.976Z,95.9
2017-03-09T04:46:33.265Z,95.9
2017-03-09T04:47:36.224Z,95.9
2017-03-09T04:49:41.586Z,95.9
2017-03-09T04:50:44.050Z,95.9
2017-03-09T04:51:46.528Z,95.9
2017-03-09T04:52:49.024Z,95.9
2017-03-09T04:53:51.978Z,95.9
2017-03-09T04:54:54.433Z,95.9
2017-03-09T04:55:57.413Z,95.9
2017-03-09T04:56:59.370Z,95.9
2017-03-09T04:58:02.321Z,95.9
2017-03-09T04:59:04.783Z,95.9
2017-03-09T05:00:07.238Z,95.9
2017-03-09T05:01:09.698Z,95.9
2017-03-09T05:02:13.192Z,95.9
2017-03-09T05:03:15.149Z,95.9
2017-03-09T05:04:17.618Z,95.9
2017-03-09T05:05:20.100Z,95.9
2017-03-09T05:06:23.056Z,95.9
2017-03-09T05:07:25.511Z,95.9
2017-03-09T05:08:27.973Z,95.9
2017-03-09T05:09:30.428Z,95.9
2017-03-09T05:10:33.384Z,95.9
2017-03-09T05:11:35.868Z,95.9
2017-03-09T05:12:38.337Z,95.9
2017-03-09T05:13:40.789Z,95.9
2017-03-09T05:14:43.776Z,95.9
2017-03-09T05:15:46.253Z,95.9
2017-03-09T05:17:51.613Z,95.9
2017-03-09T05:18:54.086Z,95.9
2017-03-09T05:19:56.567Z,95.9
2017-03-09T05:20:59.016Z,95.9
2017-03-09T05:22:02.001Z,95.9
2017-03-09T05:23:04.459Z,95.9
2017-03-09T05:24:06.799Z,95.9
2017-03-09T05:25:09.750Z,95.9
2017-03-09T05:26:12.220Z,95.9
2017-03-09T05:27:14.669Z,95.9
2017-03-09T05:28:17.120Z,95.9
2017-03-09T05:29:19.915Z,95.9
2017-03-09T05:30:22.891Z,95.9
2017-03-09T05:31:24.850Z,95.9
2017-03-09T05:32:27.833Z,95.9
2017-03-09T05:33:30.285Z,95.9
2017-03-09T05:34:32.738Z,95.9
2017-03-09T05:36:37.763Z,95.9
2017-03-09T05:39:46.038Z,95.9
2017-03-09T05:48:06.340Z,95.9
2017-03-09T05:49:09.297Z,96
2017-03-09T05:50:11.762Z,96
2017-03-09T05:51:14.215Z,96
2017-03-09T05:52:17.176Z,96
2017-03-09T05:53:19.460Z,96
2017-03-09T05:54:21.911Z,96
2017-03-09T05:55:24.868Z,96
2017-03-09T05:56:27.321Z,96
2017-03-09T05:57:29.780Z,96
2017-03-09T05:58:32.744Z,96
2017-03-09T06:01:40.046Z,96
2017-03-09T06:02:43.024Z,96
2017-03-09T06:03:45.488Z,96
2017-03-09T06:04:47.937Z,96
2017-03-09T06:05:50.415Z,96
2017-03-09T06:06:53.406Z,96
2017-03-09T06:07:55.860Z,96
2017-03-09T06:08:58.312Z,96
2017-03-09T06:11:03.673Z,96
2017-03-09T06:12:06.153Z,96
2017-03-09T06:13:08.610Z,96
2017-03-09T06:14:11.566Z,96
2017-03-09T06:15:14.017Z,96
2017-03-09T06:16:16.481Z,96
2017-03-09T06:17:18.957Z,96
2017-03-09T06:18:21.931Z,96
2017-03-09T06:19:24.385Z,96
2017-03-09T06:20:26.842Z,96
2017-03-09T06:21:29.638Z,96
2017-03-09T06:22:32.093Z,96
2017-03-09T06:23:35.097Z,96
2017-03-09T06:24:37.050Z,96
2017-03-09T06:25:40.005Z,96
2017-03-09T06:26:42.457Z,96
2017-03-09T06:27:44.926Z,96
2017-03-09T06:28:47.895Z,96
2017-03-09T06:29:50.346Z,96
2017-03-09T06:31:55.222Z,96
2017-03-09T06:32:58.204Z,96
2017-03-09T06:34:00.698Z,96
2017-03-09T06:35:02.979Z,96
2017-03-09T06:36:06.280Z,96
2017-03-09T06:37:08.227Z,96
2017-03-09T06:38:11.181Z,96
2017-03-09T06:39:13.645Z,96
2017-03-09T06:40:16.114Z,96
2017-03-09T06:41:18.594Z,96
2017-03-09T06:42:21.564Z,96
2017-03-09T06:43:23.935Z,96
2017-03-09T06:44:26.721Z,96
2017-03-09T06:45:29.176Z,96
2017-03-09T06:46:31.626Z,96
2017-03-09T06:47:34.971Z,96
2017-03-09T06:48:36.915Z,96
2017-03-09T06:49:39.371Z,96
2017-03-09T06:50:42.323Z,96
2017-03-09T06:51:44.778Z,96
2017-03-09T06:52:47.252Z,96
2017-03-09T06:53:49.722Z,96
2017-03-09T06:54:52.706Z,96
2017-03-09T06:55:54.998Z,96
2017-03-09T06:56:57.457Z,96
2017-03-09T06:58:00.410Z,96
2017-03-09T06:59:02.884Z,96
2017-03-09T07:00:05.342Z,96
2017-03-09T07:01:07.841Z,96
2017-03-09T07:02:10.796Z,96
2017-03-09T07:03:13.276Z,96
2017-03-09T07:04:15.739Z,96
2017-03-09T07:05:18.706Z,96
2017-03-09T07:06:21.160Z,96
2017-03-09T07:07:23.622Z,96
2017-03-09T07:08:26.098Z,96
2017-03-09T07:09:29.049Z,96
2017-03-09T07:10:31.506Z,96
2017-03-09T07:11:33.960Z,96
2017-03-09T07:12:36.916Z,96
2017-03-09T07:13:39.204Z,96
2017-03-09T07:14:42.208Z,96
2017-03-09T07:15:44.677Z,96
2017-03-09T07:16:47.136Z,96
2017-03-09T07:17:49.590Z,96
2017-03-09T07:18:52.051Z,95.9
2017-03-09T07:19:54.848Z,95.9
2017-03-09T07:20:57.321Z,95.9
2017-03-09T07:22:00.322Z,95.9
2017-03-09T07:23:02.801Z,95.9
2017-03-09T07:24:05.122Z,95.9
2017-03-09T07:25:07.916Z,95.9
2017-03-09T07:26:10.399Z,96
2017-03-09T07:27:12.848Z,96
2017-03-09T07:28:15.805Z,96
2017-03-09T07:29:18.262Z,96
2017-03-09T07:30:20.740Z,95.9
2017-03-09T07:31:23.552Z,95.9
2017-03-09T07:32:26.014Z,95.9
2017-03-09T07:33:28.976Z,95.9
2017-03-09T07:34:31.429Z,95.9
2017-03-09T07:35:35.143Z,95.9
2017-03-09T07:36:36.464Z,95.8
2017-03-09T07:37:38.911Z,95.8
2017-03-09T07:38:41.870Z,95.9
2017-03-09T07:39:44.615Z,95.8
2017-03-09T07:40:47.074Z,95.8
2017-03-09T07:41:49.525Z,95.7
2017-03-09T07:42:51.990Z,95.7
2017-03-09T07:43:54.944Z,95.7
2017-03-09T07:44:57.440Z,95.8
2017-03-09T07:46:00.422Z,95.8
2017-03-09T07:47:02.713Z,95.8
2017-03-09T07:48:05.196Z,95.8
2017-03-09T07:49:07.991Z,95.7
2017-03-09T07:50:10.459Z,95.7
2017-03-09T07:51:12.907Z,95.7
2017-03-09T07:52:15.699Z,95.7
2017-03-09T07:53:18.173Z,95.7
2017-03-09T07:54:21.140Z,95.7
2017-03-09T07:55:23.432Z,95.7
2017-03-09T07:56:26.397Z,95.6
2017-03-09T07:57:28.859Z,95.6
2017-03-09T07:58:31.311Z,95.6
2017-03-09T07:59:34.121Z,95.6
2017-03-09T08:00:36.588Z,95.5
2017-03-09T08:01:39.075Z,95.5
2017-03-09T08:03:44.449Z,95.4
2017-03-09T08:04:46.904Z,95.4
2017-03-09T08:05:49.879Z,95.4
2017-03-09T08:06:52.333Z,95.4
2017-03-09T08:07:54.786Z,95.3
2017-03-09T08:08:57.748Z,95.3
2017-03-09T08:10:00.203Z,95.3
2017-03-09T08:11:02.682Z,95.2
2017-03-09T08:12:05.638Z,95.2
2017-03-09T08:13:08.112Z,95.2
2017-03-09T08:14:10.564Z,95.1
2017-03-09T08:15:13.539Z,95.1
2017-03-09T08:16:15.995Z,95.1
2017-03-09T08:17:18.786Z,95
2017-03-09T08:18:21.764Z,94.9
2017-03-09T08:19:23.947Z,94.8
2017-03-09T08:20:26.408Z,94.7
2017-03-09T08:21:28.859Z,94.6
2017-03-09T08:22:31.647Z,94.6
2017-03-09T08:23:34.437Z,94.5
2017-03-09T08:24:37.755Z,94.3
2017-03-09T08:25:39.730Z,94.2
2017-03-09T08:26:42.187Z,94.1
2017-03-09T08:27:45.141Z,94
2017-03-09T08:28:47.611Z,93.9
2017-03-09T08:29:50.067Z,93.8
2017-03-09T08:30:53.038Z,93.8
2017-03-09T08:31:56.026Z,93.7
2017-03-09T08:32:58.174Z,93.7
2017-03-09T08:34:00.646Z,93.7
2017-03-09T08:35:03.616Z,93.7
2017-03-09T08:36:06.081Z,93.7
2017-03-09T08:37:08.534Z,93.7
2017-03-09T08:41:07.474Z,93.9
2017-03-09T08:41:19.136Z,93.9
2017-03-09T08:42:41.335Z,93.9
2017-03-09T08:43:24.697Z,94
2017-03-09T08:44:27.176Z,94
2017-03-09T08:45:29.675Z,94.1
2017-03-09T08:46:32.682Z,94.1
2017-03-09T08:47:35.168Z,94.1
2017-03-09T08:48:37.670Z,94
2017-03-09T08:49:40.169Z,94
2017-03-09T08:50:43.145Z,93.9
2017-03-09T08:51:45.606Z,93.9
2017-03-09T08:52:48.061Z,93.9
2017-03-09T08:53:51.045Z,93.9
2017-03-09T08:54:54.024Z,93.9
2017-03-09T08:55:55.976Z,93.9
2017-03-09T08:56:58.933Z,93.9
2017-03-09T08:58:01.404Z,93.9
2017-03-09T08:59:03.863Z,93.9
2017-03-09T09:00:06.823Z,93.9
2017-03-09T09:01:09.295Z,93.9
2017-03-09T09:02:11.741Z,93.9
2017-03-09T09:03:14.712Z,93.9
2017-03-09T09:04:17.001Z,93.9
2017-03-09T09:05:19.791Z,93.9
2017-03-09T09:06:22.766Z,93.9
2017-03-09T09:07:25.245Z,94
2017-03-09T09:08:27.711Z,93.9
2017-03-09T09:09:30.523Z,93.9
2017-03-09T09:10:32.981Z,93.9
2017-03-09T09:11:35.461Z,93.9
2017-03-09T09:12:38.441Z,93.9
2017-03-09T09:13:40.899Z,93.9
2017-03-09T09:14:43.352Z,93.9
2017-03-09T09:15:46.309Z,94
2017-03-09T09:16:48.759Z,94
2017-03-09T09:17:51.727Z,94
2017-03-09T09:18:54.176Z,94
2017-03-09T09:19:56.984Z,94
2017-03-09T09:20:59.461Z,94
2017-03-09T09:22:01.936Z,93.9
2017-03-09T09:23:04.904Z,93.9
2017-03-09T09:24:07.217Z,93.9
2017-03-09T09:25:10.179Z,93.9
2017-03-09T09:26:13.156Z,93.9
2017-03-09T09:27:15.112Z,93.9
2017-03-09T09:28:18.064Z,93.9
2017-03-09T09:29:21.040Z,93.9
2017-03-09T09:30:22.989Z,93.9
2017-03-09T09:31:25.954Z,93.9
2017-03-09T09:32:28.410Z,93.8
2017-03-09T09:33:30.861Z,93.8
2017-03-09T09:34:33.658Z,93.8
2017-03-09T09:35:36.125Z,93.8
2017-03-09T09:36:39.086Z,93.7
2017-03-09T09:37:41.544Z,93.7
2017-03-09T09:38:44.338Z,93.7
2017-03-09T09:39:46.785Z,93.7
2017-03-09T09:41:52.165Z,93.6
2017-03-09T09:42:54.640Z,93.6
2017-03-09T09:43:57.451Z,93.6
2017-03-09T09:45:00.249Z,93.6
2017-03-09T09:46:02.708Z,93.6
2017-03-09T09:47:05.159Z,93.6
2017-03-09T09:48:07.953Z,93.5
2017-03-09T09:49:10.427Z,93.5
2017-03-09T09:50:13.384Z,93.5
2017-03-09T09:51:15.681Z,93.5
2017-03-09T09:52:18.647Z,93.5
2017-03-09T09:53:21.448Z,93.5
2017-03-09T09:54:23.754Z,93.5
2017-03-09T09:55:26.722Z,93.5
2017-03-09T09:56:29.171Z,93.5
2017-03-09T09:57:31.637Z,93.5
2017-03-09T09:58:34.607Z,93.5
2017-03-09T09:59:37.068Z,93.5
2017-03-09T10:00:39.518Z,93.5
2017-03-09T10:01:42.487Z,93.6
2017-03-09T10:02:44.940Z,93.6
2017-03-09T10:03:47.416Z,93.5
2017-03-09T10:04:50.904Z,93.5
2017-03-09T10:05:52.691Z,93.5
2017-03-09T10:06:55.651Z,93.5
2017-03-09T10:07:58.271Z,93.5
2017-03-09T10:09:00.728Z,93.5
2017-03-09T10:10:03.682Z,93.5
2017-03-09T10:11:06.155Z,93.6
2017-03-09T10:12:08.608Z,93.6
2017-03-09T10:13:11.596Z,93.6
2017-03-09T10:14:14.060Z,93.6
2017-03-09T10:15:16.358Z,93.6
2017-03-09T10:16:19.339Z,93.6
2017-03-09T10:17:21.796Z,93.6
2017-03-09T10:18:24.769Z,93.6
2017-03-09T10:19:27.226Z,93.6
2017-03-09T10:20:29.679Z,93.6
2017-03-09T10:21:32.471Z,93.6
2017-03-09T10:22:35.442Z,93.6
2017-03-09T10:24:40.308Z,93.6
2017-03-09T10:25:43.644Z,93.6
2017-03-09T10:26:45.596Z,93.6
2017-03-09T10:27:48.551Z,93.6
2017-03-09T10:28:51.037Z,93.6
2017-03-09T10:29:54.037Z,93.6
2017-03-09T10:30:56.513Z,93.6
2017-03-09T10:31:58.987Z,93.6
2017-03-09T10:33:01.444Z,93.6
2017-03-09T10:34:04.401Z,93.6
2017-03-09T10:35:06.689Z,93.5
2017-03-09T10:36:09.653Z,93.5
2017-03-09T10:37:12.105Z,93.5
2017-03-09T10:38:15.086Z,93.5
2017-03-09T10:39:17.568Z,93.5
2017-03-09T10:40:20.544Z,93.5
2017-03-09T10:41:22.993Z,93.5
2017-03-09T10:42:25.307Z,93.4
2017-03-09T10:44:30.678Z,93.4
2017-03-09T10:45:33.299Z,93.4
2017-03-09T10:46:36.258Z,93.4
2017-03-09T10:47:38.725Z,93.4
2017-03-09T10:48:41.544Z,93.4
2017-03-09T10:49:44.013Z,93.4
2017-03-09T10:50:46.469Z,93.4
2017-03-09T10:51:49.438Z,93.4
2017-03-09T10:52:51.889Z,93.4
2017-03-09T10:53:54.345Z,93.3
2017-03-09T10:54:57.339Z,93.3
2017-03-09T10:55:59.794Z,93.3
2017-03-09T10:57:02.767Z,93.4
2017-03-09T10:58:05.219Z,93.4
2017-03-09T10:59:07.673Z,93.4
2017-03-09T11:00:10.633Z,93.3
2017-03-09T11:01:12.932Z,93.4
2017-03-09T11:02:15.734Z,93.4
2017-03-09T11:03:18.712Z,93.4
2017-03-09T11:04:21.176Z,93.4
2017-03-09T11:05:23.668Z,93.4
2017-03-09T11:06:26.161Z,93.3
2017-03-09T11:06:56.407Z,93.3
2017-03-09T11:07:29.162Z,93.3
2017-03-09T11:08:31.457Z,93.4
2017-03-09T11:10:36.820Z,93.3
2017-03-09T11:11:39.770Z,93.3
2017-03-09T11:12:42.226Z,93.3
2017-03-09T11:13:44.700Z,93.3
2017-03-09T11:14:47.662Z,93.3
2017-03-09T11:15:50.131Z,93.3
2017-03-09T11:16:52.595Z,93.3
2017-03-09T11:17:55.579Z,93.3
2017-03-09T11:18:58.029Z,93.2
2017-03-09T11:20:00.988Z,93.2
2017-03-09T11:21:03.358Z,93.2
2017-03-09T11:22:06.345Z,93.2
2017-03-09T11:23:08.796Z,93.2
2017-03-09T11:24:11.259Z,93.2
2017-03-09T11:25:14.216Z,93.1
2017-03-09T11:26:16.678Z,93.1
2017-03-09T11:27:19.138Z,93.1
2017-03-09T11:29:24.513Z,93.2
2017-03-09T11:30:27.468Z,93.2
2017-03-09T11:31:29.919Z,93.2
2017-03-09T11:33:35.808Z,93.2
2017-03-09T11:34:37.770Z,93.2
2017-03-09T11:35:40.755Z,93.2
2017-03-09T11:36:43.206Z,93.2
2017-03-09T11:37:45.658Z,93.2
2017-03-09T11:38:48.613Z,93.2
2017-03-09T11:39:51.063Z,93.2
2017-03-09T11:40:54.016Z,93.2
2017-03-09T11:41:56.326Z,93.2
2017-03-09T11:42:59.281Z,93.3
2017-03-09T11:44:01.746Z,93.3
2017-03-09T11:45:04.289Z,93.3
2017-03-09T11:46:07.267Z,93.3
2017-03-09T11:47:09.719Z,93.3
2017-03-09T11:48:12.234Z,93.3
2017-03-09T11:49:15.197Z,93.3
2017-03-09T11:50:17.479Z,93.3
2017-03-09T11:51:20.449Z,93.3
2017-03-09T11:52:22.902Z,93.3
2017-03-09T11:53:25.870Z,93.3
2017-03-09T11:54:28.319Z,93.3
2017-03-09T11:55:30.787Z,93.4
2017-03-09T11:57:36.160Z,93.4
2017-03-09T11:58:39.135Z,93.4
2017-03-09T11:59:41.590Z,93.4
2017-03-09T12:00:44.055Z,93.5
2017-03-09T12:01:46.841Z,93.5
2017-03-09T12:02:49.800Z,93.5
2017-03-09T12:03:52.275Z,93.5
2017-03-09T12:04:54.724Z,93.6
2017-03-09T12:05:57.680Z,93.6
2017-03-09T12:07:00.131Z,93.6
2017-03-09T12:08:02.605Z,93.6
2017-03-09T12:09:05.571Z,93.6
2017-03-09T12:10:08.029Z,93.6
2017-03-09T12:11:11.524Z,93.6
2017-03-09T12:12:14.001Z,93.6
2017-03-09T12:13:15.965Z,93.6
2017-03-09T12:14:18.930Z,93.6
2017-03-09T12:15:21.916Z,93.6
2017-03-09T12:16:23.699Z,93.5
2017-03-09T12:17:26.660Z,93.5
2017-03-09T12:18:29.450Z,93.5
2017-03-09T12:19:31.911Z,93.5
2017-03-09T12:20:34.861Z,93.5
2017-03-09T12:21:37.226Z,93.5
2017-03-09T12:22:40.197Z,93.5
2017-03-09T12:23:42.656Z,93.5
2017-03-09T12:24:44.950Z,93.4
2017-03-09T12:25:47.922Z,93.4
2017-03-09T12:26:50.713Z,93.4
2017-03-09T12:27:53.161Z,93.4
2017-03-09T12:28:56.130Z,93.4
2017-03-09T12:29:58.588Z,93.4
2017-03-09T12:31:00.905Z,93.4
2017-03-09T12:32:03.895Z,93.3
2017-03-09T12:34:09.094Z,93.3
2017-03-09T12:36:14.523Z,93.3
2017-03-09T12:37:17.321Z,93.3
2017-03-09T12:38:19.786Z,93.3
2017-03-09T12:40:25.162Z,93.3
2017-03-09T12:41:27.619Z,93.2
2017-03-09T12:42:30.573Z,93.2
2017-03-09T12:43:33.028Z,93.2
2017-03-09T12:44:35.664Z,93.1
2017-03-09T12:45:38.623Z,93.1
2017-03-09T12:46:41.072Z,93.1
2017-03-09T12:47:44.107Z,93
2017-03-09T12:48:46.242Z,93
2017-03-09T12:49:49.209Z,92.9
2017-03-09T12:50:51.699Z,92.9
2017-03-09T12:51:54.491Z,92.8
2017-03-09T12:52:56.943Z,92.8
2017-03-09T12:53:59.903Z,92.7
2017-03-09T12:55:02.360Z,92.6
2017-03-09T12:56:05.148Z,92.6
2017-03-09T12:57:07.951Z,92.6
2017-03-09T12:58:10.408Z,92.5
2017-03-09T12:59:12.883Z,92.5
2017-03-09T13:00:15.669Z,92.5
2017-03-09T13:01:18.675Z,92.5
2017-03-09T13:02:21.137Z,92.5
2017-03-09T13:03:23.764Z,92.5
2017-03-09T13:04:26.244Z,92.5
2017-03-09T13:05:29.207Z,92.5
2017-03-09T13:06:31.667Z,92.5
2017-03-09T13:07:34.633Z,92.5
2017-03-09T13:08:37.101Z,92.5
2017-03-09T13:09:39.571Z,92.5
2017-03-09T13:10:42.524Z,92.5
2017-03-09T13:11:44.982Z,92.5
2017-03-09T13:12:47.843Z,92.5
2017-03-09T13:13:50.297Z,92.6
2017-03-09T13:14:53.096Z,92.6
2017-03-09T13:15:55.549Z,92.6
2017-03-09T13:16:58.518Z,92.6
2017-03-09T13:18:01.002Z,92.6
2017-03-09T13:19:03.805Z,92.6
2017-03-09T13:20:06.126Z,92.6
2017-03-09T13:21:09.081Z,92.6
2017-03-09T13:22:12.051Z,92.6
2017-03-09T13:23:14.527Z,92.6
2017-03-09T13:24:16.978Z,92.7
2017-03-09T13:25:19.931Z,92.7
2017-03-09T13:26:22.397Z,92.7
2017-03-09T13:27:25.035Z,92.7
2017-03-09T13:28:28.031Z,92.7
2017-03-09T13:29:31.013Z,92.7
2017-03-09T13:30:32.993Z,92.7
2017-03-09T13:31:35.784Z,92.7
2017-03-09T13:32:38.747Z,92.7
2017-03-09T13:33:41.211Z,92.7
2017-03-09T13:34:43.663Z,92.7
2017-03-09T13:35:46.628Z,92.8
2017-03-09T13:36:49.078Z,92.8
2017-03-09T13:38:54.446Z,92.9
2017-03-09T13:39:57.414Z,92.9
2017-03-09T13:40:59.862Z,93
2017-03-09T13:42:02.319Z,93
2017-03-09T13:43:05.294Z,93.1
2017-03-09T13:44:07.749Z,93.1
2017-03-09T13:45:10.538Z,93.1
2017-03-09T13:46:13.031Z,93.2
2017-03-09T13:47:16.002Z,93.2
2017-03-09T13:48:18.980Z,93.2
2017-03-09T13:49:21.441Z,93.2
2017-03-09T13:50:23.894Z,93.3
2017-03-09T13:51:26.374Z,93.3
2017-03-09T13:52:29.340Z,93.3
2017-03-09T13:53:31.792Z,93.3
2017-03-09T13:54:34.749Z,93.4
2017-03-09T13:55:37.216Z,93.4
2017-03-09T13:56:39.674Z,93.4
2017-03-09T13:57:42.630Z,93.4
2017-03-09T13:58:45.087Z,93.5
2017-03-09T13:59:48.081Z,93.5
2017-03-09T14:00:50.567Z,93.5
2017-03-09T14:01:53.042Z,93.5
2017-03-09T14:02:55.998Z,93.6
2017-03-09T14:03:58.459Z,93.6
2017-03-09T14:05:01.417Z,93.6
2017-03-09T14:06:03.728Z,93.7
2017-03-09T14:07:06.681Z,93.7
2017-03-09T14:08:09.138Z,93.7
2017-03-09T14:09:11.602Z,93.7
2017-03-09T14:10:14.557Z,93.7
2017-03-09T14:11:17.020Z,93.7
2017-03-09T14:13:22.411Z,93.8
2017-03-09T14:14:25.212Z,93.8
2017-03-09T14:15:27.682Z,93.8
2017-03-09T14:16:30.638Z,93.8
2017-03-09T14:17:33.100Z,93.8
2017-03-09T14:18:35.558Z,93.8
2017-03-09T14:19:38.526Z,93.8
2017-03-09T14:20:41.512Z,93.8
2017-03-09T14:21:43.970Z,93.8
2017-03-09T14:22:46.441Z,93.8
2017-03-09T14:23:48.906Z,93.8
2017-03-09T14:24:51.874Z,93.8
2017-03-09T14:25:54.327Z,93.8
2017-03-09T14:26:57.807Z,93.7
2017-03-09T14:27:59.757Z,93.7
2017-03-09T14:29:02.216Z,93.7
2017-03-09T14:30:05.173Z,93.7
2017-03-09T14:31:07.648Z,93.7
2017-03-09T14:32:10.603Z,93.7
2017-03-09T14:33:13.602Z,93.7
2017-03-09T14:34:15.547Z,93.7
2017-03-09T14:35:18.513Z,93.7
2017-03-09T14:36:20.978Z,93.7
2017-03-09T14:37:23.930Z,93.7
2017-03-09T14:38:26.389Z,93.7
2017-03-09T14:39:29.179Z,93.8